sensor_id;sensor_type;location;lat;lon;timestamp;temperature;humidity
68257;DHT22;55069;51.568;4.656;2023-06-10T00:00:00;22.48;60.38
68257;DHT22;55069;51.568;4.656;2023-06-10T00:02:28;22.47;60.52
68257;DHT22;55069;51.568;4.656;2023-06-10T00:04:54;22.48;60.64
68257;DHT22;55069;51.568;4.656;2023-06-10T00:07:19;22.47;60.41
68257;DHT22;55069;51.568;4.656;2023-06-10T00:09:45;22.40;60.79
68257;DHT22;55069;51.568;4.656;2023-06-10T00:12:10;22.41;60.59
68257;DHT22;55069;51.568;4.656;2023-06-10T00:14:38;22.40;60.58
68257;DHT22;55069;51.568;4.656;2023-06-10T00:17:05;22.32;60.81
68257;DHT22;55069;51.568;4.656;2023-06-10T00:19:31;22.31;60.93
68257;DHT22;55069;51.568;4.656;2023-06-10T00:21:57;22.25;60.73
68257;DHT22;55069;51.568;4.656;2023-06-10T00:24:23;22.18;61.14
68257;DHT22;55069;51.568;4.656;2023-06-10T00:26:49;22.14;61.19
68257;DHT22;55069;51.568;4.656;2023-06-10T00:29:14;22.10;60.94
68257;DHT22;55069;51.568;4.656;2023-06-10T00:31:40;22.01;61.30
68257;DHT22;55069;51.568;4.656;2023-06-10T00:34:07;21.94;61.39
68257;DHT22;55069;51.568;4.656;2023-06-10T00:36:33;21.94;61.26
68257;DHT22;55069;51.568;4.656;2023-06-10T00:38:58;21.93;61.09
68257;DHT22;55069;51.568;4.656;2023-06-10T00:41:24;21.86;61.62
68257;DHT22;55069;51.568;4.656;2023-06-10T00:43:51;21.80;61.53
68257;DHT22;55069;51.568;4.656;2023-06-10T00:46:17;21.80;61.57
68257;DHT22;55069;51.568;4.656;2023-06-10T00:48:44;21.79;61.51
68257;DHT22;55069;51.568;4.656;2023-06-10T00:51:10;21.76;61.38
68257;DHT22;55069;51.568;4.656;2023-06-10T00:53:39;21.80;61.08
68257;DHT22;55069;51.568;4.656;2023-06-10T00:56:06;21.77;61.36
68257;DHT22;55069;51.568;4.656;2023-06-10T00:58:32;21.75;61.70
68257;DHT22;55069;51.568;4.656;2023-06-10T01:00:57;21.73;61.38
68257;DHT22;55069;51.568;4.656;2023-06-10T01:03:26;21.72;61.37
68257;DHT22;55069;51.568;4.656;2023-06-10T01:11:41;21.53;61.86
68257;DHT22;55069;51.568;4.656;2023-06-10T01:14:09;21.48;61.84
68257;DHT22;55069;51.568;4.656;2023-06-10T01:16:35;21.42;61.75
68257;DHT22;55069;51.568;4.656;2023-06-10T01:19:02;21.36;61.79
68257;DHT22;55069;51.568;4.656;2023-06-10T01:21:28;21.29;61.76
68257;DHT22;55069;51.568;4.656;2023-06-10T01:23:54;21.25;61.96
68257;DHT22;55069;51.568;4.656;2023-06-10T01:26:24;21.21;62.45
68257;DHT22;55069;51.568;4.656;2023-06-10T01:29:03;21.14;62.08
68257;DHT22;55069;51.568;4.656;2023-06-10T01:31:33;21.09;62.17
68257;DHT22;55069;51.568;4.656;2023-06-10T01:34:07;20.97;62.53
68257;DHT22;55069;51.568;4.656;2023-06-10T01:36:34;20.92;62.89
68257;DHT22;55069;51.568;4.656;2023-06-10T01:39:02;20.83;63.28
68257;DHT22;55069;51.568;4.656;2023-06-10T01:41:28;20.76;63.22
68257;DHT22;55069;51.568;4.656;2023-06-10T01:43:54;20.71;63.29
68257;DHT22;55069;51.568;4.656;2023-06-10T01:46:20;20.77;62.97
68257;DHT22;55069;51.568;4.656;2023-06-10T01:48:47;20.66;63.02
68257;DHT22;55069;51.568;4.656;2023-06-10T01:51:12;20.61;63.54
68257;DHT22;55069;51.568;4.656;2023-06-10T01:53:38;20.50;63.01
68257;DHT22;55069;51.568;4.656;2023-06-10T01:56:03;20.46;63.87
68257;DHT22;55069;51.568;4.656;2023-06-10T01:58:29;20.39;63.60
68257;DHT22;55069;51.568;4.656;2023-06-10T02:00:55;20.40;63.40
68257;DHT22;55069;51.568;4.656;2023-06-10T02:03:20;20.30;63.88
68257;DHT22;55069;51.568;4.656;2023-06-10T02:05:46;20.25;63.52
68257;DHT22;55069;51.568;4.656;2023-06-10T02:08:11;20.23;64.12
68257;DHT22;55069;51.568;4.656;2023-06-10T02:10:37;20.15;64.08
68257;DHT22;55069;51.568;4.656;2023-06-10T02:13:03;20.12;64.06
68257;DHT22;55069;51.568;4.656;2023-06-10T02:15:28;20.11;63.62
68257;DHT22;55069;51.568;4.656;2023-06-10T02:17:54;20.04;64.24
68257;DHT22;55069;51.568;4.656;2023-06-10T02:20:21;20.02;64.28
68257;DHT22;55069;51.568;4.656;2023-06-10T02:22:47;19.98;64.08
68257;DHT22;55069;51.568;4.656;2023-06-10T02:25:12;19.95;64.10
68257;DHT22;55069;51.568;4.656;2023-06-10T02:27:38;19.91;64.05
68257;DHT22;55069;51.568;4.656;2023-06-10T02:30:04;19.82;64.75
68257;DHT22;55069;51.568;4.656;2023-06-10T02:32:33;19.79;64.50
68257;DHT22;55069;51.568;4.656;2023-06-10T02:34:59;19.82;64.14
68257;DHT22;55069;51.568;4.656;2023-06-10T02:37:26;19.77;64.37
68257;DHT22;55069;51.568;4.656;2023-06-10T02:39:53;19.74;64.55
68257;DHT22;55069;51.568;4.656;2023-06-10T02:42:19;19.70;64.24
68257;DHT22;55069;51.568;4.656;2023-06-10T02:44:45;19.58;64.55
68257;DHT22;55069;51.568;4.656;2023-06-10T02:47:17;19.60;64.91
68257;DHT22;55069;51.568;4.656;2023-06-10T02:49:42;19.57;64.93
68257;DHT22;55069;51.568;4.656;2023-06-10T02:52:09;19.57;64.88
68257;DHT22;55069;51.568;4.656;2023-06-10T02:54:37;19.58;64.55
68257;DHT22;55069;51.568;4.656;2023-06-10T02:57:05;19.58;64.91
68257;DHT22;55069;51.568;4.656;2023-06-10T02:59:31;19.54;64.72
68257;DHT22;55069;51.568;4.656;2023-06-10T03:01:57;19.54;65.10
68257;DHT22;55069;51.568;4.656;2023-06-10T03:04:25;19.54;65.25
68257;DHT22;55069;51.568;4.656;2023-06-10T03:07:02;19.43;65.31
68257;DHT22;55069;51.568;4.656;2023-06-10T03:09:31;19.41;65.10
68257;DHT22;55069;51.568;4.656;2023-06-10T03:11:59;19.43;65.58
68257;DHT22;55069;51.568;4.656;2023-06-10T03:14:27;19.45;65.61
68257;DHT22;55069;51.568;4.656;2023-06-10T03:16:53;19.37;65.78
68257;DHT22;55069;51.568;4.656;2023-06-10T03:19:21;19.34;65.67
68257;DHT22;55069;51.568;4.656;2023-06-10T03:21:50;19.34;65.01
68257;DHT22;55069;51.568;4.656;2023-06-10T03:24:20;19.24;65.67
68257;DHT22;55069;51.568;4.656;2023-06-10T03:26:46;19.22;65.78
68257;DHT22;55069;51.568;4.656;2023-06-10T03:29:12;19.18;65.45
68257;DHT22;55069;51.568;4.656;2023-06-10T03:31:38;19.16;66.13
68257;DHT22;55069;51.568;4.656;2023-06-10T03:34:05;19.12;65.74
68257;DHT22;55069;51.568;4.656;2023-06-10T03:36:31;19.16;65.53
68257;DHT22;55069;51.568;4.656;2023-06-10T03:38:57;19.15;65.76
68257;DHT22;55069;51.568;4.656;2023-06-10T03:41:23;19.09;66.16
68257;DHT22;55069;51.568;4.656;2023-06-10T03:43:50;19.10;66.56
68257;DHT22;55069;51.568;4.656;2023-06-10T03:46:16;19.08;65.55
68257;DHT22;55069;51.568;4.656;2023-06-10T03:48:44;19.05;66.13
68257;DHT22;55069;51.568;4.656;2023-06-10T03:51:09;19.05;65.68
68257;DHT22;55069;51.568;4.656;2023-06-10T03:53:35;19.06;65.84
68257;DHT22;55069;51.568;4.656;2023-06-10T03:56:00;19.05;66.13
68257;DHT22;55069;51.568;4.656;2023-06-10T03:58:26;19.08;66.16
68257;DHT22;55069;51.568;4.656;2023-06-10T04:00:52;19.06;66.00
68257;DHT22;55069;51.568;4.656;2023-06-10T04:03:26;19.05;66.17
68257;DHT22;55069;51.568;4.656;2023-06-10T04:05:51;19.02;65.81
68257;DHT22;55069;51.568;4.656;2023-06-10T04:08:17;18.99;66.48
68257;DHT22;55069;51.568;4.656;2023-06-10T04:10:43;19.00;66.06
68257;DHT22;55069;51.568;4.656;2023-06-10T04:13:08;18.99;66.74
68257;DHT22;55069;51.568;4.656;2023-06-10T04:15:40;18.98;65.99
68257;DHT22;55069;51.568;4.656;2023-06-10T04:18:09;19.00;66.47
68257;DHT22;55069;51.568;4.656;2023-06-10T04:20:35;19.02;66.87
68257;DHT22;55069;51.568;4.656;2023-06-10T04:23:01;19.02;66.45
68257;DHT22;55069;51.568;4.656;2023-06-10T04:25:28;19.08;66.44
68257;DHT22;55069;51.568;4.656;2023-06-10T04:27:54;19.08;66.81
68257;DHT22;55069;51.568;4.656;2023-06-10T04:30:20;19.12;66.69
68257;DHT22;55069;51.568;4.656;2023-06-10T04:32:47;19.13;66.76
68257;DHT22;55069;51.568;4.656;2023-06-10T04:35:15;19.15;66.89
68257;DHT22;55069;51.568;4.656;2023-06-10T04:37:41;19.16;67.17
68257;DHT22;55069;51.568;4.656;2023-06-10T04:40:08;19.18;66.91
68257;DHT22;55069;51.568;4.656;2023-06-10T04:42:35;19.29;67.24
68257;DHT22;55069;51.568;4.656;2023-06-10T04:45:01;19.29;67.51
68257;DHT22;55069;51.568;4.656;2023-06-10T04:47:28;19.29;66.81
68257;DHT22;55069;51.568;4.656;2023-06-10T04:49:53;19.31;67.48
68257;DHT22;55069;51.568;4.656;2023-06-10T04:52:19;19.33;67.43
68257;DHT22;55069;51.568;4.656;2023-06-10T04:54:45;19.37;67.39
68257;DHT22;55069;51.568;4.656;2023-06-10T04:57:11;19.40;66.90
68257;DHT22;55069;51.568;4.656;2023-06-10T04:59:37;19.43;66.95
68257;DHT22;55069;51.568;4.656;2023-06-10T05:02:04;19.45;67.65
68257;DHT22;55069;51.568;4.656;2023-06-10T05:04:30;19.51;67.41
68257;DHT22;55069;51.568;4.656;2023-06-10T05:06:55;19.54;67.49
68257;DHT22;55069;51.568;4.656;2023-06-10T05:09:21;19.56;67.54
68257;DHT22;55069;51.568;4.656;2023-06-10T05:11:46;19.63;67.12
68257;DHT22;55069;51.568;4.656;2023-06-10T05:14:12;19.66;67.52
68257;DHT22;55069;51.568;4.656;2023-06-10T05:16:38;19.70;66.81
68257;DHT22;55069;51.568;4.656;2023-06-10T05:19:04;19.75;66.74
68257;DHT22;55069;51.568;4.656;2023-06-10T05:21:30;19.81;67.66
68257;DHT22;55069;51.568;4.656;2023-06-10T05:23:55;19.84;67.61
68257;DHT22;55069;51.568;4.656;2023-06-10T05:26:21;19.88;66.90
68257;DHT22;55069;51.568;4.656;2023-06-10T05:28:47;19.91;67.05
68257;DHT22;55069;51.568;4.656;2023-06-10T05:31:13;19.99;66.68
68257;DHT22;55069;51.568;4.656;2023-06-10T05:33:39;20.05;67.15
68257;DHT22;55069;51.568;4.656;2023-06-10T05:36:05;20.08;67.23
68257;DHT22;55069;51.568;4.656;2023-06-10T05:38:31;20.09;67.10
68257;DHT22;55069;51.568;4.656;2023-06-10T05:40:56;20.18;66.61
68257;DHT22;55069;51.568;4.656;2023-06-10T05:43:24;20.21;66.55
68257;DHT22;55069;51.568;4.656;2023-06-10T05:45:50;20.29;66.30
68257;DHT22;55069;51.568;4.656;2023-06-10T05:48:15;20.37;66.32
68257;DHT22;55069;51.568;4.656;2023-06-10T05:50:41;20.42;66.22
68257;DHT22;55069;51.568;4.656;2023-06-10T05:53:10;20.46;66.55
68257;DHT22;55069;51.568;4.656;2023-06-10T05:55:44;20.59;66.10
68257;DHT22;55069;51.568;4.656;2023-06-10T05:58:11;20.64;65.68
68257;DHT22;55069;51.568;4.656;2023-06-10T06:00:38;20.71;65.11
68257;DHT22;55069;51.568;4.656;2023-06-10T06:03:06;20.76;65.00
68257;DHT22;55069;51.568;4.656;2023-06-10T06:05:33;20.84;65.36
68257;DHT22;55069;51.568;4.656;2023-06-10T06:08:18;20.97;64.64
68257;DHT22;55069;51.568;4.656;2023-06-10T06:10:45;21.07;64.56
68257;DHT22;55069;51.568;4.656;2023-06-10T06:13:11;21.14;64.36
68257;DHT22;55069;51.568;4.656;2023-06-10T06:15:36;21.22;64.88
68257;DHT22;55069;51.568;4.656;2023-06-10T06:18:02;21.28;64.63
68257;DHT22;55069;51.568;4.656;2023-06-10T06:20:28;21.38;64.38
68257;DHT22;55069;51.568;4.656;2023-06-10T06:22:53;21.52;63.60
68257;DHT22;55069;51.568;4.656;2023-06-10T06:25:19;21.56;63.74
68257;DHT22;55069;51.568;4.656;2023-06-10T06:27:45;21.62;64.34
68257;DHT22;55069;51.568;4.656;2023-06-10T06:30:11;21.69;63.82
68257;DHT22;55069;51.568;4.656;2023-06-10T06:32:37;21.77;63.36
68257;DHT22;55069;51.568;4.656;2023-06-10T06:35:03;21.84;63.68
68257;DHT22;55069;51.568;4.656;2023-06-10T06:37:31;21.94;63.27
68257;DHT22;55069;51.568;4.656;2023-06-10T06:40:12;22.05;63.40
68257;DHT22;55069;51.568;4.656;2023-06-10T06:42:38;22.18;62.20
68257;DHT22;55069;51.568;4.656;2023-06-10T06:45:13;22.25;63.13
68257;DHT22;55069;51.568;4.656;2023-06-10T06:47:39;22.32;62.39
68257;DHT22;55069;51.568;4.656;2023-06-10T06:50:05;22.34;62.49
68257;DHT22;55069;51.568;4.656;2023-06-10T06:52:30;22.47;62.28
68257;DHT22;55069;51.568;4.656;2023-06-10T06:54:56;22.56;63.14
68257;DHT22;55069;51.568;4.656;2023-06-10T06:57:21;22.66;61.86
68257;DHT22;55069;51.568;4.656;2023-06-10T06:59:48;22.73;60.50
68257;DHT22;55069;51.568;4.656;2023-06-10T07:02:14;22.80;61.05
68257;DHT22;55069;51.568;4.656;2023-06-10T07:04:39;22.86;61.63
68257;DHT22;55069;51.568;4.656;2023-06-10T07:07:07;22.95;61.25
68257;DHT22;55069;51.568;4.656;2023-06-10T07:09:37;23.09;60.49
68257;DHT22;55069;51.568;4.656;2023-06-10T07:12:03;23.20;59.94
68257;DHT22;55069;51.568;4.656;2023-06-10T07:14:28;23.24;60.75
68257;DHT22;55069;51.568;4.656;2023-06-10T07:16:54;23.33;60.33
68257;DHT22;55069;51.568;4.656;2023-06-10T07:19:20;23.38;59.98
68257;DHT22;55069;51.568;4.656;2023-06-10T07:21:45;23.45;60.84
68257;DHT22;55069;51.568;4.656;2023-06-10T07:24:11;23.59;60.35
68257;DHT22;55069;51.568;4.656;2023-06-10T07:26:36;23.64;58.85
68257;DHT22;55069;51.568;4.656;2023-06-10T07:29:02;23.69;59.58
68257;DHT22;55069;51.568;4.656;2023-06-10T07:31:28;23.83;59.19
68257;DHT22;55069;51.568;4.656;2023-06-10T07:33:53;23.95;58.15
68257;DHT22;55069;51.568;4.656;2023-06-10T07:36:19;24.03;59.35
68257;DHT22;55069;51.568;4.656;2023-06-10T07:38:44;24.14;59.38
68257;DHT22;55069;51.568;4.656;2023-06-10T07:41:10;24.29;59.89
68257;DHT22;55069;51.568;4.656;2023-06-10T07:43:37;24.43;58.92
68257;DHT22;55069;51.568;4.656;2023-06-10T07:46:02;24.54;58.54
68257;DHT22;55069;51.568;4.656;2023-06-10T07:48:28;24.63;58.04
68257;DHT22;55069;51.568;4.656;2023-06-10T07:50:53;24.75;57.01
68257;DHT22;55069;51.568;4.656;2023-06-10T07:53:19;24.88;56.92
68257;DHT22;55069;51.568;4.656;2023-06-10T07:55:45;24.94;55.97
68257;DHT22;55069;51.568;4.656;2023-06-10T07:58:10;25.02;56.55
68257;DHT22;55069;51.568;4.656;2023-06-10T08:00:36;25.15;55.06
68257;DHT22;55069;51.568;4.656;2023-06-10T08:03:02;25.22;56.60
68257;DHT22;55069;51.568;4.656;2023-06-10T08:05:27;25.32;55.83
68257;DHT22;55069;51.568;4.656;2023-06-10T08:07:53;25.40;56.26
68257;DHT22;55069;51.568;4.656;2023-06-10T08:10:18;25.51;54.31
68257;DHT22;55069;51.568;4.656;2023-06-10T08:12:44;25.57;55.03
68257;DHT22;55069;51.568;4.656;2023-06-10T08:15:10;25.73;55.96
68257;DHT22;55069;51.568;4.656;2023-06-10T08:17:37;25.90;55.09
68257;DHT22;55069;51.568;4.656;2023-06-10T08:20:03;26.02;54.33
68257;DHT22;55069;51.568;4.656;2023-06-10T08:22:29;26.09;53.84
68257;DHT22;55069;51.568;4.656;2023-06-10T08:24:54;26.06;52.78
68257;DHT22;55069;51.568;4.656;2023-06-10T08:27:21;26.08;53.53
68257;DHT22;55069;51.568;4.656;2023-06-10T08:29:47;26.15;53.03
68257;DHT22;55069;51.568;4.656;2023-06-10T08:32:12;26.19;52.28
68257;DHT22;55069;51.568;4.656;2023-06-10T08:34:38;26.12;51.55
68257;DHT22;55069;51.568;4.656;2023-06-10T08:37:04;26.31;51.55
68257;DHT22;55069;51.568;4.656;2023-06-10T08:39:30;26.45;50.86
68257;DHT22;55069;51.568;4.656;2023-06-10T08:44:31;26.60;51.31
68257;DHT22;55069;51.568;4.656;2023-06-10T08:47:06;26.66;50.15
68257;DHT22;55069;51.568;4.656;2023-06-10T08:49:38;26.75;50.37
68257;DHT22;55069;51.568;4.656;2023-06-10T08:52:06;26.80;49.97
68257;DHT22;55069;51.568;4.656;2023-06-10T08:54:33;27.00;50.74
68257;DHT22;55069;51.568;4.656;2023-06-10T08:57:06;27.07;50.09
68257;DHT22;55069;51.568;4.656;2023-06-10T08:59:32;27.21;50.75
68257;DHT22;55069;51.568;4.656;2023-06-10T09:01:58;27.37;50.10
68257;DHT22;55069;51.568;4.656;2023-06-10T09:04:26;27.51;49.70
68257;DHT22;55069;51.568;4.656;2023-06-10T09:06:52;27.46;49.86
68257;DHT22;55069;51.568;4.656;2023-06-10T09:09:18;27.58;48.63
68257;DHT22;55069;51.568;4.656;2023-06-10T09:11:45;27.59;49.01
68257;DHT22;55069;51.568;4.656;2023-06-10T09:14:11;27.73;48.57
68257;DHT22;55069;51.568;4.656;2023-06-10T09:16:40;27.81;48.63
68257;DHT22;55069;51.568;4.656;2023-06-10T09:19:06;27.92;49.73
68257;DHT22;55069;51.568;4.656;2023-06-10T09:21:34;28.04;49.33
68257;DHT22;55069;51.568;4.656;2023-06-10T09:24:00;28.06;48.27
68257;DHT22;55069;51.568;4.656;2023-06-10T09:26:29;28.18;47.73
68257;DHT22;55069;51.568;4.656;2023-06-10T09:29:07;28.24;47.54
68257;DHT22;55069;51.568;4.656;2023-06-10T09:31:38;28.31;48.25
68257;DHT22;55069;51.568;4.656;2023-06-10T09:34:08;28.37;48.00
68257;DHT22;55069;51.568;4.656;2023-06-10T09:36:35;28.49;47.51
68257;DHT22;55069;51.568;4.656;2023-06-10T09:39:01;28.59;48.46
68257;DHT22;55069;51.568;4.656;2023-06-10T09:41:34;28.76;47.53
68257;DHT22;55069;51.568;4.656;2023-06-10T09:44:11;28.85;47.87
68257;DHT22;55069;51.568;4.656;2023-06-10T09:46:38;28.89;46.41
68257;DHT22;55069;51.568;4.656;2023-06-10T09:49:03;28.96;45.62
68257;DHT22;55069;51.568;4.656;2023-06-10T09:51:29;28.92;45.34
68257;DHT22;55069;51.568;4.656;2023-06-10T09:53:55;28.83;46.26
68257;DHT22;55069;51.568;4.656;2023-06-10T09:56:20;28.91;46.16
68257;DHT22;55069;51.568;4.656;2023-06-10T09:58:53;29.15;45.87
68257;DHT22;55069;51.568;4.656;2023-06-10T10:01:18;29.35;44.57
68257;DHT22;55069;51.568;4.656;2023-06-10T10:03:49;29.30;44.10
68257;DHT22;55069;51.568;4.656;2023-06-10T10:06:16;29.42;44.44
68257;DHT22;55069;51.568;4.656;2023-06-10T10:08:42;29.38;42.81
68257;DHT22;55069;51.568;4.656;2023-06-10T10:11:09;29.42;43.24
68257;DHT22;55069;51.568;4.656;2023-06-10T10:13:35;29.44;44.22
68257;DHT22;55069;51.568;4.656;2023-06-10T10:16:11;29.62;44.57
68257;DHT22;55069;51.568;4.656;2023-06-10T10:18:39;29.72;42.88
68257;DHT22;55069;51.568;4.656;2023-06-10T10:21:11;29.75;42.32
68257;DHT22;55069;51.568;4.656;2023-06-10T10:24:05;29.93;42.47
68257;DHT22;55069;51.568;4.656;2023-06-10T10:26:33;30.02;44.40
68257;DHT22;55069;51.568;4.656;2023-06-10T10:29:05;30.20;42.42
68257;DHT22;55069;51.568;4.656;2023-06-10T10:31:34;30.05;40.68
68257;DHT22;55069;51.568;4.656;2023-06-10T10:34:06;30.13;41.91
68257;DHT22;55069;51.568;4.656;2023-06-10T10:36:32;30.20;41.14
68257;DHT22;55069;51.568;4.656;2023-06-10T10:38:58;30.28;41.55
68257;DHT22;55069;51.568;4.656;2023-06-10T10:41:24;30.33;40.29
68257;DHT22;55069;51.568;4.656;2023-06-10T10:43:52;30.50;41.34
68257;DHT22;55069;51.568;4.656;2023-06-10T10:46:18;30.66;39.87
68257;DHT22;55069;51.568;4.656;2023-06-10T10:48:44;30.81;40.56
68257;DHT22;55069;51.568;4.656;2023-06-10T10:51:10;30.95;40.57
68257;DHT22;55069;51.568;4.656;2023-06-10T10:53:39;30.99;38.64
68257;DHT22;55069;51.568;4.656;2023-06-10T10:56:14;31.07;37.91
68257;DHT22;55069;51.568;4.656;2023-06-10T10:58:39;31.28;38.55
68257;DHT22;55069;51.568;4.656;2023-06-10T11:01:13;31.35;36.78
68257;DHT22;55069;51.568;4.656;2023-06-10T11:03:44;31.28;36.96
68257;DHT22;55069;51.568;4.656;2023-06-10T11:06:18;31.24;37.51
68257;DHT22;55069;51.568;4.656;2023-06-10T11:11:25;31.32;35.53
68257;DHT22;55069;51.568;4.656;2023-06-10T11:16:28;31.32;35.18
68257;DHT22;55069;51.568;4.656;2023-06-10T11:18:54;31.19;35.60
68257;DHT22;55069;51.568;4.656;2023-06-10T11:21:20;31.14;36.18
68257;DHT22;55069;51.568;4.656;2023-06-10T11:23:50;31.25;37.21
68257;DHT22;55069;51.568;4.656;2023-06-10T11:31:25;31.66;35.42
68257;DHT22;55069;51.568;4.656;2023-06-10T11:33:58;31.59;35.85
68257;DHT22;55069;51.568;4.656;2023-06-10T11:36:25;31.38;35.82
68257;DHT22;55069;51.568;4.656;2023-06-10T11:38:56;31.59;36.30
68257;DHT22;55069;51.568;4.656;2023-06-10T11:41:23;31.63;34.94
68257;DHT22;55069;51.568;4.656;2023-06-10T11:43:49;31.80;37.30
68257;DHT22;55069;51.568;4.656;2023-06-10T11:46:15;31.76;35.32
68257;DHT22;55069;51.568;4.656;2023-06-10T11:48:57;31.72;36.25
68257;DHT22;55069;51.568;4.656;2023-06-10T11:51:27;31.90;35.91
68257;DHT22;55069;51.568;4.656;2023-06-10T11:53:53;31.94;34.98
68257;DHT22;55069;51.568;4.656;2023-06-10T11:56:27;32.13;35.62
68257;DHT22;55069;51.568;4.656;2023-06-10T11:59:00;32.00;35.69
68257;DHT22;55069;51.568;4.656;2023-06-10T12:01:31;32.06;35.22
68257;DHT22;55069;51.568;4.656;2023-06-10T12:06:40;32.08;35.18
68257;DHT22;55069;51.568;4.656;2023-06-10T12:09:12;32.25;37.33
68257;DHT22;55069;51.568;4.656;2023-06-10T12:11:38;32.20;34.62
68257;DHT22;55069;51.568;4.656;2023-06-10T12:14:05;32.24;34.54
68257;DHT22;55069;51.568;4.656;2023-06-10T12:16:31;32.13;33.92
68257;DHT22;55069;51.568;4.656;2023-06-10T12:19:04;32.14;34.65
68257;DHT22;55069;51.568;4.656;2023-06-10T12:21:33;32.01;34.72
68257;DHT22;55069;51.568;4.656;2023-06-10T12:26:34;32.23;34.23
68257;DHT22;55069;51.568;4.656;2023-06-10T12:29:12;32.48;35.16
68257;DHT22;55069;51.568;4.656;2023-06-10T12:32:01;32.65;35.59
68257;DHT22;55069;51.568;4.656;2023-06-10T12:34:33;32.82;35.26
68257;DHT22;55069;51.568;4.656;2023-06-10T12:37:00;32.85;34.51
68257;DHT22;55069;51.568;4.656;2023-06-10T12:39:25;32.69;35.91
68257;DHT22;55069;51.568;4.656;2023-06-10T12:41:52;32.80;33.27
68257;DHT22;55069;51.568;4.656;2023-06-10T12:44:17;32.87;31.28
68257;DHT22;55069;51.568;4.656;2023-06-10T12:46:43;32.48;31.68
68257;DHT22;55069;51.568;4.656;2023-06-10T12:49:19;32.78;33.18
68257;DHT22;55069;51.568;4.656;2023-06-10T12:51:45;32.89;34.30
68257;DHT22;55069;51.568;4.656;2023-06-10T12:54:11;33.12;34.51
68257;DHT22;55069;51.568;4.656;2023-06-10T12:56:38;33.27;32.97
68257;DHT22;55069;51.568;4.656;2023-06-10T12:59:03;32.99;31.49
68257;DHT22;55069;51.568;4.656;2023-06-10T13:01:29;33.03;32.20
68257;DHT22;55069;51.568;4.656;2023-06-10T13:03:56;33.14;32.73
68257;DHT22;55069;51.568;4.656;2023-06-10T13:06:22;33.21;31.87
68257;DHT22;55069;51.568;4.656;2023-06-10T13:08:48;33.37;31.45
68257;DHT22;55069;51.568;4.656;2023-06-10T13:11:14;33.78;31.53
68257;DHT22;55069;51.568;4.656;2023-06-10T13:13:39;34.32;32.86
68257;DHT22;55069;51.568;4.656;2023-06-10T13:16:05;34.36;31.98
68257;DHT22;55069;51.568;4.656;2023-06-10T13:18:31;34.59;31.48
68257;DHT22;55069;51.568;4.656;2023-06-10T13:21:03;34.83;30.38
68257;DHT22;55069;51.568;4.656;2023-06-10T13:23:29;35.02;30.50
68257;DHT22;55069;51.568;4.656;2023-06-10T13:25:56;34.87;30.08
68257;DHT22;55069;51.568;4.656;2023-06-10T13:28:22;34.27;31.89
68257;DHT22;55069;51.568;4.656;2023-06-10T13:30:48;33.99;33.43
68257;DHT22;55069;51.568;4.656;2023-06-10T13:33:13;33.72;30.35
68257;DHT22;55069;51.568;4.656;2023-06-10T13:35:39;33.55;31.16
68257;DHT22;55069;51.568;4.656;2023-06-10T13:38:05;33.55;31.78
68257;DHT22;55069;51.568;4.656;2023-06-10T13:40:31;33.57;33.07
68257;DHT22;55069;51.568;4.656;2023-06-10T13:42:56;33.94;32.13
68257;DHT22;55069;51.568;4.656;2023-06-10T13:45:22;34.47;31.40
68257;DHT22;55069;51.568;4.656;2023-06-10T13:47:47;33.95;31.86
68257;DHT22;55069;51.568;4.656;2023-06-10T13:50:13;34.01;31.96
68257;DHT22;55069;51.568;4.656;2023-06-10T13:52:39;33.72;32.84
68257;DHT22;55069;51.568;4.656;2023-06-10T13:55:04;34.20;32.20
68257;DHT22;55069;51.568;4.656;2023-06-10T13:57:30;34.35;36.58
68257;DHT22;55069;51.568;4.656;2023-06-10T13:59:56;34.46;33.68
68257;DHT22;55069;51.568;4.656;2023-06-10T14:02:22;34.20;32.10
68257;DHT22;55069;51.568;4.656;2023-06-10T14:04:47;33.91;31.72
68257;DHT22;55069;51.568;4.656;2023-06-10T14:07:13;33.89;34.96
68257;DHT22;55069;51.568;4.656;2023-06-10T14:09:38;33.71;32.69
68257;DHT22;55069;51.568;4.656;2023-06-10T14:12:04;33.79;33.51
68257;DHT22;55069;51.568;4.656;2023-06-10T14:14:30;34.01;32.11
68257;DHT22;55069;51.568;4.656;2023-06-10T14:16:58;33.98;33.06
68257;DHT22;55069;51.568;4.656;2023-06-10T14:19:24;33.94;33.52
68257;DHT22;55069;51.568;4.656;2023-06-10T14:21:50;34.12;33.16
68257;DHT22;55069;51.568;4.656;2023-06-10T14:24:15;34.13;33.26
68257;DHT22;55069;51.568;4.656;2023-06-10T14:26:41;34.36;33.53
68257;DHT22;55069;51.568;4.656;2023-06-10T14:29:07;34.02;31.77
68257;DHT22;55069;51.568;4.656;2023-06-10T14:31:33;34.37;30.81
68257;DHT22;55069;51.568;4.656;2023-06-10T14:33:59;34.70;31.83
68257;DHT22;55069;51.568;4.656;2023-06-10T14:36:25;35.02;30.16
68257;DHT22;55069;51.568;4.656;2023-06-10T14:38:50;35.53;31.79
68257;DHT22;55069;51.568;4.656;2023-06-10T14:41:16;35.52;30.30
68257;DHT22;55069;51.568;4.656;2023-06-10T14:43:42;35.05;28.83
68257;DHT22;55069;51.568;4.656;2023-06-10T14:46:07;35.48;30.17
68257;DHT22;55069;51.568;4.656;2023-06-10T14:48:33;35.93;28.81
68257;DHT22;55069;51.568;4.656;2023-06-10T14:50:59;35.82;31.26
68257;DHT22;55069;51.568;4.656;2023-06-10T14:53:24;35.92;30.97
68257;DHT22;55069;51.568;4.656;2023-06-10T14:55:50;35.93;30.25
68257;DHT22;55069;51.568;4.656;2023-06-10T14:58:15;35.87;28.19
68257;DHT22;55069;51.568;4.656;2023-06-10T15:00:41;35.87;30.20
68257;DHT22;55069;51.568;4.656;2023-06-10T15:03:06;36.20;33.14
68257;DHT22;55069;51.568;4.656;2023-06-10T15:05:32;36.75;30.53
68257;DHT22;55069;51.568;4.656;2023-06-10T15:08:00;36.45;29.20
68257;DHT22;55069;51.568;4.656;2023-06-10T15:10:25;36.78;31.76
68257;DHT22;55069;51.568;4.656;2023-06-10T15:12:51;36.53;26.00
68257;DHT22;55069;51.568;4.656;2023-06-10T15:15:22;36.34;28.87
68257;DHT22;55069;51.568;4.656;2023-06-10T15:17:48;35.92;31.77
68257;DHT22;55069;51.568;4.656;2023-06-10T15:20:13;36.13;29.29
68257;DHT22;55069;51.568;4.656;2023-06-10T15:22:39;36.67;31.48
68257;DHT22;55069;51.568;4.656;2023-06-10T15:25:05;37.10;30.22
68257;DHT22;55069;51.568;4.656;2023-06-10T15:27:31;36.95;29.77
68257;DHT22;55069;51.568;4.656;2023-06-10T15:29:57;36.74;29.01
68257;DHT22;55069;51.568;4.656;2023-06-10T15:32:22;36.86;31.22
68257;DHT22;55069;51.568;4.656;2023-06-10T15:34:48;36.58;29.37
68257;DHT22;55069;51.568;4.656;2023-06-10T15:37:16;36.71;29.49
68257;DHT22;55069;51.568;4.656;2023-06-10T15:39:42;36.48;29.71
68257;DHT22;55069;51.568;4.656;2023-06-10T15:42:07;36.99;30.03
68257;DHT22;55069;51.568;4.656;2023-06-10T15:44:33;36.92;28.23
68257;DHT22;55069;51.568;4.656;2023-06-10T15:46:59;36.96;29.23
68257;DHT22;55069;51.568;4.656;2023-06-10T15:49:24;37.06;28.91
68257;DHT22;55069;51.568;4.656;2023-06-10T15:51:50;37.17;27.06